sensor_id;sensor_type;location;lat;lon;timestamp;pressure;altitude;pressure_sealevel;temperature
15453;BMP280;7827;53.594;9.938;2023-07-09T00:00:18;116970.44;;;-135.29
15453;BMP280;7827;53.594;9.938;2023-07-09T00:02:48;116970.44;;;-135.29
15453;BMP280;7827;53.594;9.938;2023-07-09T00:05:17;116970.44;;;-135.29
15453;BMP280;7827;53.594;9.938;2023-07-09T00:07:45;116970.44;;;-135.29
15453;BMP280;7827;53.594;9.938;2023-07-09T00:10:17;116970.44;;;-135.29
15453;BMP280;7827;53.594;9.938;2023-07-09T00:12:47;116970.44;;;-135.29
15453;BMP280;7827;53.594;9.938;2023-07-09T00:15:16;116970.44;;;-135.29
15453;BMP280;7827;53.594;9.938;2023-07-09T00:17:45;116970.44;;;-135.29
15453;BMP280;7827;53.594;9.938;2023-07-09T00:20:17;116970.44;;;-135.29
15453;BMP280;7827;53.594;9.938;2023-07-09T00:22:45;116970.44;;;-135.29
15453;BMP280;7827;53.594;9.938;2023-07-09T00:25:20;116970.44;;;-135.29
15453;BMP280;7827;53.594;9.938;2023-07-09T00:27:49;116970.44;;;-135.29
15453;BMP280;7827;53.594;9.938;2023-07-09T00:30:21;116970.44;;;-135.29
15453;BMP280;7827;53.594;9.938;2023-07-09T00:32:50;116970.44;;;-135.29
15453;BMP280;7827;53.594;9.938;2023-07-09T00:35:23;116970.44;;;-135.29
15453;BMP280;7827;53.594;9.938;2023-07-09T00:37:52;116970.44;;;-135.29
15453;BMP280;7827;53.594;9.938;2023-07-09T00:40:22;116970.44;;;-135.29
15453;BMP280;7827;53.594;9.938;2023-07-09T00:42:55;116970.44;;;-135.29
15453;BMP280;7827;53.594;9.938;2023-07-09T00:45:25;116970.44;;;-135.29
15453;BMP280;7827;53.594;9.938;2023-07-09T00:47:57;116970.44;;;-135.29
15453;BMP280;7827;53.594;9.938;2023-07-09T00:50:37;116970.44;;;-135.29
15453;BMP280;7827;53.594;9.938;2023-07-09T00:53:15;116970.44;;;-135.29
15453;BMP280;7827;53.594;9.938;2023-07-09T00:55:52;116970.44;;;-135.29
15453;BMP280;7827;53.594;9.938;2023-07-09T00:58:25;116970.44;;;-135.29
15453;BMP280;7827;53.594;9.938;2023-07-09T01:01:00;116970.44;;;-135.29
15453;BMP280;7827;53.594;9.938;2023-07-09T01:03:35;116970.44;;;-135.29
15453;BMP280;7827;53.594;9.938;2023-07-09T01:06:07;116970.44;;;-135.29
15453;BMP280;7827;53.594;9.938;2023-07-09T01:08:39;116970.44;;;-135.29
15453;BMP280;7827;53.594;9.938;2023-07-09T01:11:15;116970.44;;;-135.29
15453;BMP280;7827;53.594;9.938;2023-07-09T01:13:52;116970.44;;;-135.29
15453;BMP280;7827;53.594;9.938;2023-07-09T01:16:27;116970.44;;;-135.29
15453;BMP280;7827;53.594;9.938;2023-07-09T01:18:57;116970.44;;;-135.29
15453;BMP280;7827;53.594;9.938;2023-07-09T01:21:27;116970.44;;;-135.29
15453;BMP280;7827;53.594;9.938;2023-07-09T01:23:55;116970.44;;;-135.29
15453;BMP280;7827;53.594;9.938;2023-07-09T01:26:27;116970.44;;;-135.29
15453;BMP280;7827;53.594;9.938;2023-07-09T01:28:56;116970.44;;;-135.29
15453;BMP280;7827;53.594;9.938;2023-07-09T01:31:25;116970.44;;;-135.29
15453;BMP280;7827;53.594;9.938;2023-07-09T01:33:53;116970.44;;;-135.29
15453;BMP280;7827;53.594;9.938;2023-07-09T01:36:22;116970.44;;;-135.29
15453;BMP280;7827;53.594;9.938;2023-07-09T01:38:53;116970.44;;;-135.29
15453;BMP280;7827;53.594;9.938;2023-07-09T01:41:21;116970.44;;;-135.29
15453;BMP280;7827;53.594;9.938;2023-07-09T01:43:51;116970.44;;;-135.29
15453;BMP280;7827;53.594;9.938;2023-07-09T01:46:19;116970.44;;;-135.29
15453;BMP280;7827;53.594;9.938;2023-07-09T01:48:48;116970.44;;;-135.29
15453;BMP280;7827;53.594;9.938;2023-07-09T01:51:20;116970.44;;;-135.29
15453;BMP280;7827;53.594;9.938;2023-07-09T01:53:52;116970.44;;;-135.29
15453;BMP280;7827;53.594;9.938;2023-07-09T01:56:21;116970.44;;;-135.29
15453;BMP280;7827;53.594;9.938;2023-07-09T01:58:51;116970.44;;;-135.29
15453;BMP280;7827;53.594;9.938;2023-07-09T02:01:20;116970.44;;;-135.29
15453;BMP280;7827;53.594;9.938;2023-07-09T02:03:48;116970.44;;;-135.29
15453;BMP280;7827;53.594;9.938;2023-07-09T02:06:16;116970.44;;;-135.29
15453;BMP280;7827;53.594;9.938;2023-07-09T02:08:46;116970.44;;;-135.29
15453;BMP280;7827;53.594;9.938;2023-07-09T02:11:16;116970.44;;;-135.29
15453;BMP280;7827;53.594;9.938;2023-07-09T02:13:45;116970.44;;;-135.29
15453;BMP280;7827;53.594;9.938;2023-07-09T02:16:13;116970.44;;;-135.29
15453;BMP280;7827;53.594;9.938;2023-07-09T02:18:42;116970.44;;;-135.29
15453;BMP280;7827;53.594;9.938;2023-07-09T02:21:10;116970.44;;;-135.29
15453;BMP280;7827;53.594;9.938;2023-07-09T02:23:38;116970.44;;;-135.29
15453;BMP280;7827;53.594;9.938;2023-07-09T02:26:07;116970.44;;;-135.29
15453;BMP280;7827;53.594;9.938;2023-07-09T02:28:37;116970.44;;;-135.29
15453;BMP280;7827;53.594;9.938;2023-07-09T02:31:05;116970.44;;;-135.29
15453;BMP280;7827;53.594;9.938;2023-07-09T02:33:34;116970.44;;;-135.29
15453;BMP280;7827;53.594;9.938;2023-07-09T02:36:04;116970.44;;;-135.29
15453;BMP280;7827;53.594;9.938;2023-07-09T02:38:34;116970.44;;;-135.29
15453;BMP280;7827;53.594;9.938;2023-07-09T02:41:02;116970.44;;;-135.29
15453;BMP280;7827;53.594;9.938;2023-07-09T02:43:31;116970.44;;;-135.29
15453;BMP280;7827;53.594;9.938;2023-07-09T02:46:01;116970.44;;;-135.29
15453;BMP280;7827;53.594;9.938;2023-07-09T02:48:30;116970.44;;;-135.29
15453;BMP280;7827;53.594;9.938;2023-07-09T02:50:59;116970.44;;;-135.29
15453;BMP280;7827;53.594;9.938;2023-07-09T02:53:28;116970.44;;;-135.29
15453;BMP280;7827;53.594;9.938;2023-07-09T02:55:56;116970.44;;;-135.29
15453;BMP280;7827;53.594;9.938;2023-07-09T02:58:25;116970.44;;;-135.29
15453;BMP280;7827;53.594;9.938;2023-07-09T03:00:53;116970.44;;;-135.29
15453;BMP280;7827;53.594;9.938;2023-07-09T03:03:23;116970.44;;;-135.29
15453;BMP280;7827;53.594;9.938;2023-07-09T03:05:51;116970.44;;;-135.29
15453;BMP280;7827;53.594;9.938;2023-07-09T03:08:20;116970.44;;;-135.29
15453;BMP280;7827;53.594;9.938;2023-07-09T03:10:48;116970.44;;;-135.29
15453;BMP280;7827;53.594;9.938;2023-07-09T03:13:16;116970.44;;;-135.29
15453;BMP280;7827;53.594;9.938;2023-07-09T03:15:54;116970.44;;;-135.29
15453;BMP280;7827;53.594;9.938;2023-07-09T03:18:24;116970.44;;;-135.29
15453;BMP280;7827;53.594;9.938;2023-07-09T03:20:53;116970.44;;;-135.29
15453;BMP280;7827;53.594;9.938;2023-07-09T03:23:21;116970.44;;;-135.29
15453;BMP280;7827;53.594;9.938;2023-07-09T03:25:50;116970.44;;;-135.29
15453;BMP280;7827;53.594;9.938;2023-07-09T03:28:18;116970.44;;;-135.29
15453;BMP280;7827;53.594;9.938;2023-07-09T03:30:48;116970.44;;;-135.29
15453;BMP280;7827;53.594;9.938;2023-07-09T03:33:17;116970.44;;;-135.29
15453;BMP280;7827;53.594;9.938;2023-07-09T03:35:47;116970.44;;;-135.29
15453;BMP280;7827;53.594;9.938;2023-07-09T03:38:16;116970.44;;;-135.29
15453;BMP280;7827;53.594;9.938;2023-07-09T03:40:45;116970.44;;;-135.29
15453;BMP280;7827;53.594;9.938;2023-07-09T03:43:13;116970.44;;;-135.29
15453;BMP280;7827;53.594;9.938;2023-07-09T03:45:44;116970.44;;;-135.29
15453;BMP280;7827;53.594;9.938;2023-07-09T03:48:15;116970.44;;;-135.29
15453;BMP280;7827;53.594;9.938;2023-07-09T03:50:47;116970.44;;;-135.29
15453;BMP280;7827;53.594;9.938;2023-07-09T03:53:16;116970.44;;;-135.29
15453;BMP280;7827;53.594;9.938;2023-07-09T03:55:46;116970.44;;;-135.29
15453;BMP280;7827;53.594;9.938;2023-07-09T03:58:15;116970.44;;;-135.29
15453;BMP280;7827;53.594;9.938;2023-07-09T04:00:43;116970.44;;;-135.29
15453;BMP280;7827;53.594;9.938;2023-07-09T04:03:12;116970.44;;;-135.29
15453;BMP280;7827;53.594;9.938;2023-07-09T04:05:40;116970.44;;;-135.29
15453;BMP280;7827;53.594;9.938;2023-07-09T04:08:10;116970.44;;;-135.29
15453;BMP280;7827;53.594;9.938;2023-07-09T04:10:38;116970.44;;;-135.29
15453;BMP280;7827;53.594;9.938;2023-07-09T04:13:06;116970.44;;;-135.29
15453;BMP280;7827;53.594;9.938;2023-07-09T04:15:35;116970.44;;;-135.29
15453;BMP280;7827;53.594;9.938;2023-07-09T04:18:03;116970.44;;;-135.29
15453;BMP280;7827;53.594;9.938;2023-07-09T04:20:31;116970.44;;;-135.29
15453;BMP280;7827;53.594;9.938;2023-07-09T04:23:02;116970.44;;;-135.29
15453;BMP280;7827;53.594;9.938;2023-07-09T04:25:32;116970.44;;;-135.29
15453;BMP280;7827;53.594;9.938;2023-07-09T04:28:01;116970.44;;;-135.29
15453;BMP280;7827;53.594;9.938;2023-07-09T04:30:29;116970.44;;;-135.29
15453;BMP280;7827;53.594;9.938;2023-07-09T04:32:57;116970.44;;;-135.29
15453;BMP280;7827;53.594;9.938;2023-07-09T04:35:26;116970.44;;;-135.29
15453;BMP280;7827;53.594;9.938;2023-07-09T04:37:54;116970.44;;;-135.29
15453;BMP280;7827;53.594;9.938;2023-07-09T04:40:23;116970.44;;;-135.29
15453;BMP280;7827;53.594;9.938;2023-07-09T04:42:53;116970.44;;;-135.29
15453;BMP280;7827;53.594;9.938;2023-07-09T04:45:21;116970.44;;;-135.29
15453;BMP280;7827;53.594;9.938;2023-07-09T04:47:49;116970.44;;;-135.29
15453;BMP280;7827;53.594;9.938;2023-07-09T04:50:19;116970.44;;;-135.29
15453;BMP280;7827;53.594;9.938;2023-07-09T04:52:48;116970.44;;;-135.29
15453;BMP280;7827;53.594;9.938;2023-07-09T04:55:16;116970.44;;;-135.29
15453;BMP280;7827;53.594;9.938;2023-07-09T04:57:46;116970.44;;;-135.29
15453;BMP280;7827;53.594;9.938;2023-07-09T05:00:16;116970.44;;;-135.29
15453;BMP280;7827;53.594;9.938;2023-07-09T05:02:44;116970.44;;;-135.29
15453;BMP280;7827;53.594;9.938;2023-07-09T05:05:13;116970.44;;;-135.29
15453;BMP280;7827;53.594;9.938;2023-07-09T05:07:41;116970.44;;;-135.29
15453;BMP280;7827;53.594;9.938;2023-07-09T05:10:10;116970.44;;;-135.29
15453;BMP280;7827;53.594;9.938;2023-07-09T05:12:49;116970.44;;;-135.29
15453;BMP280;7827;53.594;9.938;2023-07-09T05:15:21;116970.44;;;-135.29
15453;BMP280;7827;53.594;9.938;2023-07-09T05:17:50;116970.44;;;-135.29
15453;BMP280;7827;53.594;9.938;2023-07-09T05:20:19;116970.44;;;-135.29
15453;BMP280;7827;53.594;9.938;2023-07-09T05:22:48;116970.44;;;-135.29
15453;BMP280;7827;53.594;9.938;2023-07-09T05:25:17;116970.44;;;-135.29
15453;BMP280;7827;53.594;9.938;2023-07-09T05:27:45;116970.44;;;-135.29
15453;BMP280;7827;53.594;9.938;2023-07-09T05:30:13;116970.44;;;-135.29
15453;BMP280;7827;53.594;9.938;2023-07-09T05:32:43;116970.44;;;-135.29
15453;BMP280;7827;53.594;9.938;2023-07-09T05:35:11;116970.44;;;-135.29
15453;BMP280;7827;53.594;9.938;2023-07-09T05:37:40;116970.44;;;-135.29
15453;BMP280;7827;53.594;9.938;2023-07-09T05:40:09;116970.44;;;-135.29
15453;BMP280;7827;53.594;9.938;2023-07-09T05:42:38;116970.44;;;-135.29
15453;BMP280;7827;53.594;9.938;2023-07-09T05:45:08;116970.44;;;-135.29
15453;BMP280;7827;53.594;9.938;2023-07-09T05:47:36;116970.44;;;-135.29
15453;BMP280;7827;53.594;9.938;2023-07-09T05:50:07;116970.44;;;-135.29
15453;BMP280;7827;53.594;9.938;2023-07-09T05:52:36;116970.44;;;-135.29
15453;BMP280;7827;53.594;9.938;2023-07-09T05:55:06;116970.44;;;-135.29
15453;BMP280;7827;53.594;9.938;2023-07-09T05:57:34;116970.44;;;-135.29
15453;BMP280;7827;53.594;9.938;2023-07-09T06:00:03;116970.44;;;-135.29
15453;BMP280;7827;53.594;9.938;2023-07-09T06:02:39;116970.44;;;-135.29
15453;BMP280;7827;53.594;9.938;2023-07-09T06:05:09;116970.44;;;-135.29
15453;BMP280;7827;53.594;9.938;2023-07-09T06:07:39;116970.44;;;-135.29
15453;BMP280;7827;53.594;9.938;2023-07-09T06:10:09;116970.44;;;-135.29
15453;BMP280;7827;53.594;9.938;2023-07-09T06:12:37;116970.44;;;-135.29
15453;BMP280;7827;53.594;9.938;2023-07-09T06:15:08;116970.44;;;-135.29
15453;BMP280;7827;53.594;9.938;2023-07-09T06:17:36;116970.44;;;-135.29
15453;BMP280;7827;53.594;9.938;2023-07-09T06:20:06;116970.44;;;-135.29
15453;BMP280;7827;53.594;9.938;2023-07-09T06:22:37;116970.44;;;-135.29
15453;BMP280;7827;53.594;9.938;2023-07-09T06:25:06;116970.44;;;-135.29
15453;BMP280;7827;53.594;9.938;2023-07-09T06:27:34;116970.44;;;-135.29
15453;BMP280;7827;53.594;9.938;2023-07-09T06:30:03;116970.44;;;-135.29
15453;BMP280;7827;53.594;9.938;2023-07-09T06:32:32;116970.44;;;-135.29
15453;BMP280;7827;53.594;9.938;2023-07-09T06:35:00;116970.44;;;-135.29
15453;BMP280;7827;53.594;9.938;2023-07-09T06:37:28;116970.44;;;-135.29
15453;BMP280;7827;53.594;9.938;2023-07-09T06:39:58;116970.44;;;-135.29
15453;BMP280;7827;53.594;9.938;2023-07-09T06:42:26;116970.44;;;-135.29
15453;BMP280;7827;53.594;9.938;2023-07-09T06:45:05;116970.44;;;-135.29
15453;BMP280;7827;53.594;9.938;2023-07-09T06:47:34;116970.44;;;-135.29
15453;BMP280;7827;53.594;9.938;2023-07-09T06:50:03;116970.44;;;-135.29
15453;BMP280;7827;53.594;9.938;2023-07-09T06:52:31;116970.44;;;-135.29
15453;BMP280;7827;53.594;9.938;2023-07-09T06:55:01;116970.44;;;-135.29
15453;BMP280;7827;53.594;9.938;2023-07-09T06:57:29;116970.44;;;-135.29
15453;BMP280;7827;53.594;9.938;2023-07-09T06:59:58;116970.44;;;-135.29
15453;BMP280;7827;53.594;9.938;2023-07-09T07:02:26;116970.44;;;-135.29
15453;BMP280;7827;53.594;9.938;2023-07-09T07:04:55;116970.44;;;-135.29
15453;BMP280;7827;53.594;9.938;2023-07-09T07:07:23;116970.44;;;-135.29
15453;BMP280;7827;53.594;9.938;2023-07-09T07:09:52;116970.44;;;-135.29
15453;BMP280;7827;53.594;9.938;2023-07-09T07:12:25;116970.44;;;-135.29
15453;BMP280;7827;53.594;9.938;2023-07-09T07:14:54;116970.44;;;-135.29
15453;BMP280;7827;53.594;9.938;2023-07-09T07:17:23;116970.44;;;-135.29
15453;BMP280;7827;53.594;9.938;2023-07-09T07:19:51;116970.44;;;-135.29
15453;BMP280;7827;53.594;9.938;2023-07-09T07:22:20;116970.44;;;-135.29
15453;BMP280;7827;53.594;9.938;2023-07-09T07:24:48;116970.44;;;-135.29
15453;BMP280;7827;53.594;9.938;2023-07-09T07:27:16;116970.44;;;-135.29
15453;BMP280;7827;53.594;9.938;2023-07-09T07:29:46;116970.44;;;-135.29
15453;BMP280;7827;53.594;9.938;2023-07-09T07:32:15;116970.44;;;-135.29
15453;BMP280;7827;53.594;9.938;2023-07-09T07:34:43;116970.44;;;-135.29
15453;BMP280;7827;53.594;9.938;2023-07-09T07:37:12;116970.44;;;-135.29
15453;BMP280;7827;53.594;9.938;2023-07-09T07:39:40;116970.44;;;-135.29
15453;BMP280;7827;53.594;9.938;2023-07-09T07:42:08;116970.44;;;-135.29
15453;BMP280;7827;53.594;9.938;2023-07-09T07:44:37;116970.44;;;-135.29
15453;BMP280;7827;53.594;9.938;2023-07-09T07:47:07;116970.44;;;-135.29
15453;BMP280;7827;53.594;9.938;2023-07-09T07:49:36;116970.44;;;-135.29
15453;BMP280;7827;53.594;9.938;2023-07-09T07:52:06;116970.44;;;-135.29
15453;BMP280;7827;53.594;9.938;2023-07-09T07:54:35;116970.44;;;-135.29
15453;BMP280;7827;53.594;9.938;2023-07-09T07:57:04;116970.44;;;-135.29
15453;BMP280;7827;53.594;9.938;2023-07-09T07:59:33;116970.44;;;-135.29
15453;BMP280;7827;53.594;9.938;2023-07-09T08:02:02;116970.44;;;-135.29
15453;BMP280;7827;53.594;9.938;2023-07-09T08:04:32;116970.44;;;-135.29
15453;BMP280;7827;53.594;9.938;2023-07-09T08:07:01;116970.44;;;-135.29
15453;BMP280;7827;53.594;9.938;2023-07-09T08:09:29;116970.44;;;-135.29
15453;BMP280;7827;53.594;9.938;2023-07-09T08:11:57;116970.44;;;-135.29
15453;BMP280;7827;53.594;9.938;2023-07-09T08:14:26;116970.44;;;-135.29
15453;BMP280;7827;53.594;9.938;2023-07-09T08:16:54;116970.44;;;-135.29
15453;BMP280;7827;53.594;9.938;2023-07-09T08:19:23;116970.44;;;-135.29
15453;BMP280;7827;53.594;9.938;2023-07-09T08:21:52;116970.44;;;-135.29
15453;BMP280;7827;53.594;9.938;2023-07-09T08:24:21;116970.44;;;-135.29
15453;BMP280;7827;53.594;9.938;2023-07-09T08:26:49;116970.44;;;-135.29
15453;BMP280;7827;53.594;9.938;2023-07-09T08:29:17;116970.44;;;-135.29
15453;BMP280;7827;53.594;9.938;2023-07-09T08:31:46;116970.44;;;-135.29
15453;BMP280;7827;53.594;9.938;2023-07-09T08:34:14;116970.44;;;-135.29
15453;BMP280;7827;53.594;9.938;2023-07-09T08:36:42;116970.44;;;-135.29
15453;BMP280;7827;53.594;9.938;2023-07-09T08:39:13;116970.44;;;-135.29
15453;BMP280;7827;53.594;9.938;2023-07-09T08:41:48;116970.44;;;-135.29
15453;BMP280;7827;53.594;9.938;2023-07-09T08:45:00;116970.44;;;-135.29
15453;BMP280;7827;53.594;9.938;2023-07-09T08:50:09;116970.44;;;-135.29
15453;BMP280;7827;53.594;9.938;2023-07-09T08:52:41;116970.44;;;-135.29
15453;BMP280;7827;53.594;9.938;2023-07-09T08:55:14;116970.44;;;-135.29
15453;BMP280;7827;53.594;9.938;2023-07-09T08:57:47;116970.44;;;-135.29
15453;BMP280;7827;53.594;9.938;2023-07-09T09:00:24;116970.44;;;-135.29
15453;BMP280;7827;53.594;9.938;2023-07-09T09:03:00;116970.44;;;-135.29
15453;BMP280;7827;53.594;9.938;2023-07-09T09:05:33;116970.44;;;-135.29
15453;BMP280;7827;53.594;9.938;2023-07-09T09:08:19;116970.44;;;-135.29
15453;BMP280;7827;53.594;9.938;2023-07-09T09:11:01;116970.44;;;-135.29
15453;BMP280;7827;53.594;9.938;2023-07-09T09:13:37;116970.44;;;-135.29
15453;BMP280;7827;53.594;9.938;2023-07-09T09:16:24;116970.44;;;-135.29
15453;BMP280;7827;53.594;9.938;2023-07-09T09:18:58;116970.44;;;-135.29
15453;BMP280;7827;53.594;9.938;2023-07-09T09:21:32;116970.44;;;-135.29
15453;BMP280;7827;53.594;9.938;2023-07-09T09:24:15;116970.44;;;-135.29
15453;BMP280;7827;53.594;9.938;2023-07-09T09:26:49;116970.44;;;-135.29
15453;BMP280;7827;53.594;9.938;2023-07-09T09:29:19;116970.44;;;-135.29
15453;BMP280;7827;53.594;9.938;2023-07-09T09:31:53;116970.44;;;-135.29
15453;BMP280;7827;53.594;9.938;2023-07-09T09:34:26;116970.44;;;-135.29
15453;BMP280;7827;53.594;9.938;2023-07-09T09:36:57;116970.44;;;-135.29
15453;BMP280;7827;53.594;9.938;2023-07-09T09:39:26;116970.44;;;-135.29
15453;BMP280;7827;53.594;9.938;2023-07-09T09:41:58;116970.44;;;-135.29
15453;BMP280;7827;53.594;9.938;2023-07-09T09:44:28;116970.44;;;-135.29
15453;BMP280;7827;53.594;9.938;2023-07-09T09:46:58;116970.44;;;-135.29
15453;BMP280;7827;53.594;9.938;2023-07-09T09:49:27;116970.44;;;-135.29
15453;BMP280;7827;53.594;9.938;2023-07-09T09:52:03;116970.44;;;-135.29
15453;BMP280;7827;53.594;9.938;2023-07-09T09:54:34;116970.44;;;-135.29
15453;BMP280;7827;53.594;9.938;2023-07-09T09:57:15;116970.44;;;-135.29
15453;BMP280;7827;53.594;9.938;2023-07-09T09:59:46;116970.44;;;-135.29
15453;BMP280;7827;53.594;9.938;2023-07-09T10:02:19;116970.44;;;-135.29
15453;BMP280;7827;53.594;9.938;2023-07-09T10:04:48;116970.44;;;-135.29
15453;BMP280;7827;53.594;9.938;2023-07-09T10:07:27;116970.44;;;-135.29
15453;BMP280;7827;53.594;9.938;2023-07-09T10:09:57;116970.44;;;-135.29
15453;BMP280;7827;53.594;9.938;2023-07-09T10:12:41;116970.44;;;-135.29
15453;BMP280;7827;53.594;9.938;2023-07-09T10:15:26;116970.44;;;-135.29
15453;BMP280;7827;53.594;9.938;2023-07-09T10:18:02;116970.44;;;-135.29
15453;BMP280;7827;53.594;9.938;2023-07-09T10:20:40;116970.44;;;-135.29
15453;BMP280;7827;53.594;9.938;2023-07-09T10:23:21;116970.44;;;-135.29
15453;BMP280;7827;53.594;9.938;2023-07-09T10:25:59;116970.44;;;-135.29
15453;BMP280;7827;53.594;9.938;2023-07-09T10:28:56;116970.44;;;-135.29
15453;BMP280;7827;53.594;9.938;2023-07-09T10:31:36;116970.44;;;-135.29
15453;BMP280;7827;53.594;9.938;2023-07-09T10:34:22;116970.44;;;-135.29
15453;BMP280;7827;53.594;9.938;2023-07-09T10:37:20;116970.44;;;-135.29
15453;BMP280;7827;53.594;9.938;2023-07-09T10:39:55;116970.44;;;-135.29
15453;BMP280;7827;53.594;9.938;2023-07-09T10:42:30;116970.44;;;-135.29
15453;BMP280;7827;53.594;9.938;2023-07-09T10:45:11;116970.44;;;-135.29
15453;BMP280;7827;53.594;9.938;2023-07-09T10:47:44;116970.44;;;-135.29
15453;BMP280;7827;53.594;9.938;2023-07-09T10:50:22;116970.44;;;-135.29
15453;BMP280;7827;53.594;9.938;2023-07-09T10:52:55;116970.44;;;-135.29
15453;BMP280;7827;53.594;9.938;2023-07-09T10:55:31;116970.44;;;-135.29
15453;BMP280;7827;53.594;9.938;2023-07-09T10:58:04;116970.44;;;-135.29
15453;BMP280;7827;53.594;9.938;2023-07-09T11:00:38;116970.44;;;-135.29
15453;BMP280;7827;53.594;9.938;2023-07-09T11:03:16;116970.44;;;-135.29
15453;BMP280;7827;53.594;9.938;2023-07-09T11:05:48;116970.44;;;-135.29
15453;BMP280;7827;53.594;9.938;2023-07-09T11:08:21;116970.44;;;-135.29
15453;BMP280;7827;53.594;9.938;2023-07-09T11:10:56;116970.44;;;-135.29
15453;BMP280;7827;53.594;9.938;2023-07-09T11:13:33;116970.44;;;-135.29
15453;BMP280;7827;53.594;9.938;2023-07-09T11:16:28;116970.44;;;-135.29
15453;BMP280;7827;53.594;9.938;2023-07-09T11:19:01;116970.44;;;-135.29
15453;BMP280;7827;53.594;9.938;2023-07-09T11:21:30;116751.00;;;-135.29
15453;BMP280;7827;53.594;9.938;2023-07-09T11:24:00;116224.50;;;-135.29
15453;BMP280;7827;53.594;9.938;2023-07-09T11:26:32;115953.28;;;-135.29
15453;BMP280;7827;53.594;9.938;2023-07-09T11:29:15;116300.28;;;-135.29
15453;BMP280;7827;53.594;9.938;2023-07-09T11:31:46;115785.78;;;-135.29
15453;BMP280;7827;53.594;9.938;2023-07-09T11:34:19;114952.44;;;-135.29
15453;BMP280;7827;53.594;9.938;2023-07-09T11:36:51;114667.41;;;-135.29
15453;BMP280;7827;53.594;9.938;2023-07-09T11:39:41;113926.06;;;-135.29
15453;BMP280;7827;53.594;9.938;2023-07-09T11:42:30;112919.94;;;-135.29
15453;BMP280;7827;53.594;9.938;2023-07-09T11:45:07;113103.19;;;-135.29
15453;BMP280;7827;53.594;9.938;2023-07-09T11:47:44;111788.69;;;-135.29
15453;BMP280;7827;53.594;9.938;2023-07-09T11:50:23;110329.50;;;-135.29
15453;BMP280;7827;53.594;9.938;2023-07-09T11:52:55;109503.69;;;-135.29
15453;BMP280;7827;53.594;9.938;2023-07-09T11:55:31;108558.75;;;-135.29
15453;BMP280;7827;53.594;9.938;2023-07-09T11:58:03;107795.06;;;-135.29
15453;BMP280;7827;53.594;9.938;2023-07-09T12:00:39;108930.72;;;-135.29
15453;BMP280;7827;53.594;9.938;2023-07-09T12:03:18;108304.16;;;-135.29
15453;BMP280;7827;53.594;9.938;2023-07-09T12:05:51;108304.16;;;-135.29
15453;BMP280;7827;53.594;9.938;2023-07-09T12:08:27;107795.06;;;-135.29
15453;BMP280;7827;53.594;9.938;2023-07-09T12:10:57;107286.06;;;-135.29
15453;BMP280;7827;53.594;9.938;2023-07-09T12:13:25;107795.06;;;-135.29
15453;BMP280;7827;53.594;9.938;2023-07-09T12:15:53;107286.06;;;-135.29
15453;BMP280;7827;53.594;9.938;2023-07-09T12:18:23;106013.91;;;-135.29
15453;BMP280;7827;53.594;9.938;2023-07-09T12:20:53;104488.09;;;-135.29
15453;BMP280;7827;53.594;9.938;2023-07-09T12:23:27;103471.31;;;-135.29
15453;BMP280;7827;53.594;9.938;2023-07-09T12:26:01;103725.47;;;-135.29
15453;BMP280;7827;53.594;9.938;2023-07-09T12:28:30;104996.59;;;-135.29
15453;BMP280;7827;53.594;9.938;2023-07-09T12:30:58;106777.13;;;-135.29
15453;BMP280;7827;53.594;9.938;2023-07-09T12:33:28;107540.53;;;-135.29
15453;BMP280;7827;53.594;9.938;2023-07-09T12:35:59;108049.59;;;-135.29
15453;BMP280;7827;53.594;9.938;2023-07-09T12:38:31;108813.34;;;-135.29
15453;BMP280;7827;53.594;9.938;2023-07-09T12:41:20;107795.06;;;-135.29
15453;BMP280;7827;53.594;9.938;2023-07-09T12:43:53;106013.91;;;-135.29
15453;BMP280;7827;53.594;9.938;2023-07-09T12:46:23;104996.59;;;-135.29
15453;BMP280;7827;53.594;9.938;2023-07-09T12:48:55;103979.66;;;-135.29
15453;BMP280;7827;53.594;9.938;2023-07-09T12:51:28;101946.81;;;-135.29
15453;BMP280;7827;53.594;9.938;2023-07-09T12:54:03;99915.38;;;-135.29
15453;BMP280;7827;53.594;9.938;2023-07-09T12:56:34;100423.09;;;-135.29
15453;BMP280;7827;53.594;9.938;2023-07-09T12:59:17;100930.91;;;-135.29
15453;BMP280;7827;53.594;9.938;2023-07-09T13:01:55;101692.81;;;-135.29
15453;BMP280;7827;53.594;9.938;2023-07-09T13:04:31;101438.81;;;-135.29
15453;BMP280;7827;53.594;9.938;2023-07-09T13:07:00;100423.09;;;-135.29
15453;BMP280;7827;53.594;9.938;2023-07-09T13:09:29;99153.97;;;-135.29
15453;BMP280;7827;53.594;9.938;2023-07-09T13:11:58;98392.75;;;-135.29
15453;BMP280;7827;53.594;9.938;2023-07-09T13:14:30;98392.75;;;-135.29
15453;BMP280;7827;53.594;9.938;2023-07-09T13:17:04;97631.72;;;-135.29
15453;BMP280;7827;53.594;9.938;2023-07-09T13:19:35;97378.09;;;-135.29
15453;BMP280;7827;53.594;9.938;2023-07-09T13:22:06;99407.75;;;-135.29
15453;BMP280;7827;53.594;9.938;2023-07-09T13:24:35;101438.81;;;-135.29
15453;BMP280;7827;53.594;9.938;2023-07-09T13:27:04;101438.81;;;-135.29
15453;BMP280;7827;53.594;9.938;2023-07-09T13:29:34;100677.00;;;-135.29
15453;BMP280;7827;53.594;9.938;2023-07-09T13:32:04;100169.22;;;-135.29
15453;BMP280;7827;53.594;9.938;2023-07-09T13:34:39;99661.56;;;-135.29
15453;BMP280;7827;53.594;9.938;2023-07-09T13:37:13;99153.97;;;-135.29
15453;BMP280;7827;53.594;9.938;2023-07-09T13:39:42;98392.75;;;-135.29
15453;BMP280;7827;53.594;9.938;2023-07-09T13:42:15;96870.91;;;-135.29
15453;BMP280;7827;53.594;9.938;2023-07-09T13:44:46;96617.34;;;-135.29
15453;BMP280;7827;53.594;9.938;2023-07-09T13:47:18;96110.28;;;-135.29
15453;BMP280;7827;53.594;9.938;2023-07-09T13:49:48;96363.81;;;-135.29
15453;BMP280;7827;53.594;9.938;2023-07-09T13:52:20;96617.34;;;-135.29
15453;BMP280;7827;53.594;9.938;2023-07-09T13:54:50;96363.81;;;-135.29
15453;BMP280;7827;53.594;9.938;2023-07-09T13:57:21;96617.34;;;-135.29
15453;BMP280;7827;53.594;9.938;2023-07-09T13:59:49;96617.34;;;-135.29
15453;BMP280;7827;53.594;9.938;2023-07-09T14:02:23;95856.78;;;-135.29
15453;BMP280;7827;53.594;9.938;2023-07-09T14:04:55;95603.31;;;-135.29
15453;BMP280;7827;53.594;9.938;2023-07-09T14:07:29;95856.78;;;-135.29
15453;BMP280;7827;53.594;9.938;2023-07-09T14:09:59;95349.88;;;-135.29